createdAt,value
2023-05-12T00:00:07.259Z,95533.00
2023-05-12T00:03:12.799Z,95528.00
2023-05-12T00:06:05.880Z,95517.00
2023-05-12T00:08:58.495Z,95517.00
2023-05-12T00:11:51.481Z,95521.00
2023-05-12T00:14:45.244Z,95513.00
2023-05-12T00:17:40.931Z,95520.00
2023-05-12T00:20:38.351Z,95516.00
2023-05-12T00:23:36.654Z,95516.00
2023-05-12T00:26:25.376Z,95516.00
2023-05-12T00:29:11.824Z,95517.00
2023-05-12T00:32:07.326Z,95510.00
2023-05-12T00:34:54.812Z,95515.00
2023-05-12T00:37:42.699Z,95510.00
2023-05-12T00:40:29.732Z,95508.00
2023-05-12T00:43:22.240Z,95512.00
2023-05-12T00:46:13.767Z,95506.00
2023-05-12T00:49:05.880Z,95501.00
2023-05-12T00:51:52.234Z,95504.00
2023-05-12T00:54:49.150Z,95487.00
2023-05-12T00:57:35.306Z,95509.00
2023-05-12T01:00:21.908Z,95504.00
2023-05-12T01:03:09.322Z,95500.00
2023-05-12T01:06:18.922Z,95495.00
2023-05-12T01:09:06.161Z,95491.00
2023-05-12T01:11:52.506Z,95486.00
2023-05-12T01:14:41.440Z,95499.00
2023-05-12T01:17:48.441Z,95491.00
2023-05-12T01:20:41.249Z,95503.00
2023-05-12T01:23:35.834Z,95487.00
2023-05-12T01:26:28.023Z,95480.00
2023-05-12T01:29:20.704Z,95490.00
2023-05-12T01:32:33.541Z,95488.00
2023-05-12T01:35:55.513Z,95484.00
2023-05-12T01:39:04.493Z,95490.00
2023-05-12T01:42:08.696Z,95489.00
2023-05-12T01:45:28.238Z,95505.00
2023-05-12T01:48:21.928Z,95490.00
2023-05-12T01:51:15.500Z,95504.00
2023-05-12T01:54:06.909Z,95507.00
2023-05-12T01:57:02.878Z,95500.00
2023-05-12T01:59:58.515Z,95507.00
2023-05-12T02:02:49.651Z,95502.00
2023-05-12T02:05:38.216Z,95505.00
2023-05-12T02:08:37.481Z,95500.00
2023-05-12T02:11:26.970Z,95498.00
2023-05-12T02:14:13.297Z,95506.00
2023-05-12T02:17:05.782Z,95499.00
2023-05-12T02:19:56.640Z,95506.00
2023-05-12T02:22:44.697Z,95503.00
2023-05-12T02:25:42.339Z,95504.00
2023-05-12T02:28:33.457Z,95492.00
2023-05-12T02:31:29.948Z,95494.00
2023-05-12T02:34:19.003Z,95495.00
2023-05-12T02:37:10.261Z,95499.00
2023-05-12T02:41:44.787Z,95507.00
2023-05-12T02:44:30.129Z,95491.00
2023-05-12T02:47:28.830Z,95495.00
2023-05-12T02:50:27.648Z,95495.00
2023-05-12T02:53:14.419Z,95495.00
2023-05-12T02:56:01.402Z,95493.00
2023-05-12T02:58:47.793Z,95493.00
2023-05-12T03:01:40.044Z,95494.00
2023-05-12T03:04:37.181Z,95496.00
2023-05-12T03:07:24.420Z,95487.00
2023-05-12T03:10:11.522Z,95487.00
2023-05-12T03:13:02.302Z,95494.00
2023-05-12T03:15:51.902Z,95483.00
2023-05-12T03:18:39.081Z,95494.00
2023-05-12T03:22:15.235Z,95486.00
2023-05-12T03:24:40.226Z,95492.00
2023-05-12T03:27:33.488Z,95485.00
2023-05-12T03:30:24.686Z,95489.00
2023-05-12T03:33:11.198Z,95490.00
2023-05-12T03:36:07.680Z,95494.00
2023-05-12T03:38:53.979Z,95499.00
2023-05-12T03:41:40.264Z,95492.00
2023-05-12T03:44:26.178Z,95493.00
2023-05-12T03:47:12.850Z,95494.00
2023-05-12T03:50:02.337Z,95485.00
2023-05-12T03:52:55.568Z,95491.00
2023-05-12T03:55:42.471Z,95483.00
2023-05-12T03:58:32.220Z,95490.00
2023-05-12T04:01:18.858Z,95480.00
2023-05-12T04:04:05.483Z,95487.00
2023-05-12T04:06:58.385Z,95491.00
2023-05-12T04:09:49.085Z,95492.00
2023-05-12T04:12:39.223Z,95482.00
2023-05-12T04:15:29.218Z,95495.00
2023-05-12T04:18:15.745Z,95485.00
2023-05-12T04:21:02.773Z,95493.00
2023-05-12T04:23:53.104Z,95498.00
2023-05-12T04:26:48.103Z,95487.00
2023-05-12T04:30:19.114Z,95485.00
2023-05-12T04:34:31.055Z,95503.00
2023-05-12T04:37:11.038Z,95501.00
2023-05-12T04:39:57.580Z,95495.00
2023-05-12T04:42:47.065Z,95496.00
2023-05-12T04:45:38.196Z,95498.00
2023-05-12T04:48:44.759Z,95495.00
2023-05-12T04:51:54.027Z,95494.00
2023-05-12T04:54:40.570Z,95502.00
2023-05-12T04:57:34.374Z,95500.00
2023-05-12T05:00:23.359Z,95498.00
2023-05-12T05:03:12.331Z,95507.00
2023-05-12T05:06:08.017Z,95514.00
2023-05-12T05:08:59.341Z,95514.00
2023-05-12T05:11:48.062Z,95504.00
2023-05-12T05:14:38.411Z,95518.00
2023-05-12T05:17:27.562Z,95516.00
2023-05-12T05:20:16.055Z,95506.00
2023-05-12T05:23:06.716Z,95509.00
2023-05-12T05:26:01.754Z,95513.00
2023-05-12T05:29:09.085Z,95513.00
2023-05-12T05:31:57.338Z,95518.00
2023-05-12T05:34:44.131Z,95527.00
2023-05-12T05:41:47.306Z,95530.00
2023-05-12T05:44:33.602Z,95539.00
2023-05-12T05:47:20.895Z,95526.00
2023-05-12T05:50:09.335Z,95538.00
2023-05-12T05:52:57.752Z,95537.00
2023-05-12T05:55:46.808Z,95537.00
2023-05-12T05:58:33.533Z,95541.00
2023-05-12T06:01:30.586Z,95540.00
2023-05-12T06:04:17.090Z,95538.00
2023-05-12T06:07:03.022Z,95541.00
2023-05-12T06:09:49.011Z,95546.00
2023-05-12T06:12:35.809Z,95543.00
2023-05-12T06:15:22.282Z,95546.00
2023-05-12T06:18:09.212Z,95557.00
2023-05-12T06:20:55.134Z,95548.00
2023-05-12T06:23:41.635Z,95551.00
2023-05-12T06:26:27.283Z,95552.00
2023-05-12T06:29:15.289Z,95547.00
2023-05-12T06:32:01.335Z,95552.00
2023-05-12T06:34:47.606Z,95548.00
2023-05-12T06:37:36.238Z,95555.00
2023-05-12T06:40:22.121Z,95555.00
2023-05-12T06:43:08.068Z,95560.00
2023-05-12T06:45:57.189Z,95553.00
2023-05-12T06:48:43.319Z,95550.00
2023-05-12T06:51:29.316Z,95556.00
2023-05-12T06:54:15.313Z,95549.00
2023-05-12T06:57:03.661Z,95552.00
2023-05-12T06:59:50.650Z,95551.00
2023-05-12T07:02:36.798Z,95550.00
2023-05-12T07:05:23.082Z,95554.00
2023-05-12T07:08:09.052Z,95546.00
2023-05-12T07:10:55.052Z,95555.00
2023-05-12T07:13:41.014Z,95547.00
2023-05-12T07:16:27.227Z,95549.00
2023-05-12T07:19:13.872Z,95554.00
2023-05-12T07:22:00.004Z,95551.00
2023-05-12T07:24:48.022Z,95555.00
2023-05-12T07:27:34.556Z,95555.00
2023-05-12T07:30:22.439Z,95555.00
2023-05-12T07:33:08.993Z,95559.00
2023-05-12T07:35:55.021Z,95547.00
2023-05-12T07:38:40.871Z,95555.00
2023-05-12T07:41:27.211Z,95547.00
2023-05-12T07:44:12.877Z,95553.00
2023-05-12T07:47:01.333Z,95562.00
2023-05-12T07:49:49.541Z,95560.00
2023-05-12T07:52:35.668Z,95553.00
2023-05-12T07:55:23.410Z,95564.00
2023-05-12T07:58:09.913Z,95559.00
2023-05-12T08:00:59.277Z,95563.00
2023-05-12T08:03:46.144Z,95566.00
2023-05-12T08:06:32.670Z,95560.00
2023-05-12T08:09:21.998Z,95560.00
2023-05-12T08:12:08.155Z,95560.00
2023-05-12T08:14:54.322Z,95555.00
2023-05-12T08:17:46.255Z,95571.00
2023-05-12T08:20:32.399Z,95558.00
2023-05-12T08:23:25.606Z,95558.00
2023-05-12T08:26:15.470Z,95556.00
2023-05-12T08:29:01.718Z,95553.00
2023-05-12T08:31:47.654Z,95560.00
2023-05-12T08:34:37.244Z,95555.00
2023-05-12T08:37:23.229Z,95566.00
2023-05-12T08:40:21.057Z,95559.00
2023-05-12T08:43:27.134Z,95576.00
2023-05-12T08:46:17.548Z,95571.00
2023-05-12T08:49:05.484Z,95575.00
2023-05-12T08:51:58.086Z,95569.00
2023-05-12T08:54:55.627Z,95577.00
2023-05-12T08:57:45.815Z,95579.00
2023-05-12T09:00:36.250Z,95572.00
2023-05-12T09:03:23.757Z,95574.00
2023-05-12T09:06:13.666Z,95571.00
2023-05-12T09:09:00.623Z,95566.00
2023-05-12T09:11:49.474Z,95570.00
2023-05-12T09:14:37.820Z,95573.00
2023-05-12T09:17:23.533Z,95568.00
2023-05-12T09:20:23.793Z,95568.00
2023-05-12T09:23:21.861Z,95574.00
2023-05-12T09:26:07.635Z,95574.00
2023-05-12T09:28:56.299Z,95577.00
2023-05-12T09:31:57.163Z,95572.00
2023-05-12T09:34:44.278Z,95569.00
2023-05-12T09:37:33.808Z,95571.00
2023-05-12T09:40:19.844Z,95564.00
2023-05-12T09:43:09.592Z,95574.00
2023-05-12T09:45:55.774Z,95567.00
2023-05-12T09:48:41.835Z,95568.00
2023-05-12T09:51:28.445Z,95569.00
2023-05-12T09:54:26.791Z,95571.00
2023-05-12T09:57:17.039Z,95566.00
2023-05-12T10:00:06.108Z,95570.00
2023-05-12T10:02:59.971Z,95564.00
2023-05-12T10:05:58.538Z,95563.00
2023-05-12T10:09:11.681Z,95564.00
2023-05-12T10:12:01.439Z,95563.00
2023-05-12T10:14:48.140Z,95571.00
2023-05-12T10:17:37.360Z,95568.00
2023-05-12T10:20:23.972Z,95564.00
2023-05-12T10:23:13.607Z,95562.00
2023-05-12T10:26:02.319Z,95569.00
2023-05-12T10:28:50.303Z,95565.00
2023-05-12T10:31:37.899Z,95564.00
2023-05-12T10:34:41.089Z,95563.00
2023-05-12T10:37:29.799Z,95558.00
2023-05-12T10:40:25.425Z,95553.00
2023-05-12T10:43:25.547Z,95553.00
2023-05-12T10:46:19.602Z,95559.00
2023-05-12T10:49:13.026Z,95557.00
2023-05-12T10:52:01.815Z,95554.00
2023-05-12T10:54:49.232Z,95555.00
2023-05-12T10:57:38.387Z,95558.00
2023-05-12T11:00:29.075Z,95559.00
2023-05-12T11:03:20.521Z,95562.00
2023-05-12T11:06:08.722Z,95554.00
2023-05-12T11:08:58.885Z,95561.00
2023-05-12T11:11:48.350Z,95559.00
2023-05-12T11:14:37.442Z,95562.00
2023-05-12T11:17:23.092Z,95559.00
2023-05-12T11:20:15.142Z,95563.00
2023-05-12T11:23:01.380Z,95563.00
2023-05-12T11:25:49.874Z,95565.00
2023-05-12T11:28:42.344Z,95564.00
2023-05-12T11:31:28.102Z,95568.00
2023-05-12T11:34:13.823Z,95570.00
2023-05-12T11:37:00.681Z,95573.00
2023-05-12T11:39:46.810Z,95577.00
2023-05-12T11:42:34.681Z,95572.00
2023-05-12T11:45:34.372Z,95577.00
2023-05-12T11:48:21.740Z,95577.00
2023-05-12T11:51:08.930Z,95578.00
2023-05-12T11:53:55.728Z,95583.00
2023-05-12T11:56:52.378Z,95588.00
2023-05-12T11:59:37.970Z,95589.00
2023-05-12T12:02:26.306Z,95591.00
2023-05-12T12:05:21.299Z,95590.00
2023-05-12T12:08:13.326Z,95590.00
2023-05-12T12:11:01.983Z,95591.00
2023-05-12T12:13:56.787Z,95597.00
2023-05-12T12:16:42.541Z,95601.00
2023-05-12T12:19:28.785Z,95603.00
2023-05-12T12:22:14.962Z,95602.00
2023-05-12T12:25:02.088Z,95599.00
2023-05-12T12:27:49.627Z,95600.00
2023-05-12T12:30:35.701Z,95605.00
2023-05-12T12:33:22.149Z,95600.00
2023-05-12T12:36:08.372Z,95599.00
2023-05-12T12:38:54.788Z,95611.00
2023-05-12T12:41:40.483Z,95605.00
2023-05-12T12:44:26.206Z,95605.00
2023-05-12T12:47:12.295Z,95604.00
2023-05-12T12:49:58.851Z,95602.00
2023-05-12T12:52:44.685Z,95606.00
2023-05-12T12:55:30.741Z,95609.00
2023-05-12T12:58:16.760Z,95620.00
2023-05-12T13:01:02.857Z,95609.00
2023-05-12T13:03:49.160Z,95615.00
2023-05-12T13:06:35.348Z,95607.00
2023-05-12T13:09:21.106Z,95607.00
2023-05-12T13:12:08.121Z,95607.00
2023-05-12T13:14:53.853Z,95607.00
2023-05-12T13:17:40.491Z,95610.00
2023-05-12T13:20:28.000Z,95608.00
2023-05-12T13:23:15.023Z,95612.00
2023-05-12T13:26:00.784Z,95609.00
2023-05-12T13:28:46.650Z,95613.00
2023-05-12T13:31:32.321Z,95613.00
2023-05-12T13:34:18.269Z,95614.00
2023-05-12T13:37:04.548Z,95607.00
2023-05-12T13:39:51.198Z,95605.00
2023-05-12T13:42:39.634Z,95613.00
2023-05-12T13:45:25.915Z,95607.00
2023-05-12T13:48:12.373Z,95606.00
2023-05-12T13:50:58.704Z,95603.00
2023-05-12T13:53:44.728Z,95605.00
2023-05-12T13:56:33.813Z,95601.00
2023-05-12T13:59:20.103Z,95609.00
2023-05-12T14:02:09.835Z,95611.00
2023-05-12T14:04:56.839Z,95616.00
2023-05-12T14:07:42.730Z,95617.00
2023-05-12T14:10:30.865Z,95616.00
2023-05-12T14:13:20.382Z,95616.00
2023-05-12T14:16:09.191Z,95616.00
2023-05-12T14:18:55.766Z,95611.00
2023-05-12T14:21:42.178Z,95620.00
2023-05-12T14:24:29.104Z,95616.00
2023-05-12T14:27:16.593Z,95614.00
2023-05-12T14:30:04.023Z,95615.00
2023-05-12T14:32:50.687Z,95615.00
2023-05-12T14:35:38.968Z,95623.00
2023-05-12T14:38:25.226Z,95620.00
2023-05-12T14:41:11.313Z,95622.00
2023-05-12T14:43:58.041Z,95616.00
2023-05-12T14:46:44.062Z,95616.00
2023-05-12T14:49:30.279Z,95614.00
2023-05-12T14:52:16.491Z,95621.00
2023-05-12T14:55:02.910Z,95620.00
2023-05-12T14:57:50.283Z,95624.00
2023-05-12T15:00:37.779Z,95627.00
2023-05-12T15:03:24.667Z,95625.00
2023-05-12T15:06:11.651Z,95624.00
2023-05-12T15:08:57.843Z,95613.00
2023-05-12T15:11:47.268Z,95626.00
2023-05-12T15:14:33.151Z,95632.00
2023-05-12T15:17:19.083Z,95621.00
2023-05-12T15:20:08.396Z,95621.00
2023-05-12T15:22:54.922Z,95618.00
2023-05-12T15:25:41.267Z,95625.00
2023-05-12T15:28:28.076Z,95630.00
2023-05-12T15:31:14.004Z,95633.00
2023-05-12T15:34:00.627Z,95625.00
2023-05-12T15:36:48.735Z,95632.00
2023-05-12T15:39:35.087Z,95635.00
2023-05-12T15:42:26.190Z,95625.00
2023-05-12T15:45:15.859Z,95630.00
2023-05-12T15:48:02.224Z,95633.00
2023-05-12T15:50:49.253Z,95629.00
2023-05-12T15:53:35.485Z,95635.00
2023-05-12T15:56:23.468Z,95630.00
2023-05-12T15:59:11.535Z,95638.00
2023-05-12T16:01:58.603Z,95635.00
2023-05-12T16:04:45.670Z,95635.00
2023-05-12T16:07:32.083Z,95631.00
2023-05-12T16:10:18.003Z,95640.00
2023-05-12T16:13:04.237Z,95634.00
2023-05-12T16:15:51.469Z,95635.00
2023-05-12T16:18:40.364Z,95632.00
2023-05-12T16:21:26.190Z,95626.00
2023-05-12T16:24:12.409Z,95625.00
2023-05-12T16:26:59.495Z,95617.00
2023-05-12T16:29:47.738Z,95629.00
2023-05-12T16:32:34.009Z,95629.00
2023-05-12T16:35:21.307Z,95628.00
2023-05-12T16:38:07.210Z,95618.00
2023-05-12T16:40:53.221Z,95624.00
2023-05-12T16:43:39.788Z,95629.00
2023-05-12T16:46:28.318Z,95626.00
2023-05-12T16:49:15.028Z,95634.00
2023-05-12T16:52:01.088Z,95637.00
2023-05-12T16:54:47.958Z,95641.00
2023-05-12T16:57:36.365Z,95639.00
2023-05-12T17:00:22.760Z,95634.00
2023-05-12T17:03:09.126Z,95642.00
2023-05-12T17:05:55.292Z,95643.00
2023-05-12T17:08:42.916Z,95649.00
2023-05-12T17:11:28.813Z,95645.00
2023-05-12T17:14:14.478Z,95644.00
2023-05-12T17:17:00.967Z,95660.00
2023-05-12T17:19:46.813Z,95662.00
2023-05-12T17:22:52.393Z,95659.00
2023-05-12T17:25:44.133Z,95665.00
2023-05-12T17:28:33.290Z,95662.00
2023-05-12T17:31:19.750Z,95662.00
2023-05-12T17:34:08.065Z,95662.00
2023-05-12T17:36:57.219Z,95669.00
2023-05-12T17:39:48.517Z,95671.00
2023-05-12T17:42:40.133Z,95681.00
2023-05-12T17:45:31.433Z,95678.00
2023-05-12T17:48:19.097Z,95676.00
2023-05-12T17:51:06.416Z,95676.00
2023-05-12T17:53:56.520Z,95674.00
2023-05-12T17:56:44.789Z,95679.00
2023-05-12T17:59:30.858Z,95677.00
2023-05-12T18:02:18.676Z,95676.00
2023-05-12T18:05:09.984Z,95685.00
2023-05-12T18:07:56.592Z,95688.00
2023-05-12T18:10:42.537Z,95686.00
2023-05-12T18:13:35.867Z,95698.00
2023-05-12T18:16:29.952Z,95693.00
2023-05-12T18:19:16.248Z,95689.00
2023-05-12T18:22:02.297Z,95701.00
2023-05-12T18:24:51.195Z,95695.00
2023-05-12T18:27:38.684Z,95696.00
2023-05-12T18:30:25.112Z,95699.00
2023-05-12T18:33:12.661Z,95703.00
2023-05-12T18:35:58.676Z,95707.00
2023-05-12T18:38:48.152Z,95699.00
2023-05-12T18:41:34.296Z,95707.00
2023-05-12T18:45:07.984Z,95707.00
2023-05-12T18:47:33.652Z,95708.00
2023-05-12T18:50:24.289Z,95707.00
2023-05-12T18:53:21.625Z,95705.00
2023-05-12T18:56:09.424Z,95699.00
2023-05-12T18:59:00.149Z,95719.00
2023-05-12T19:01:48.703Z,95709.00
2023-05-12T19:04:38.588Z,95719.00
2023-05-12T19:07:24.818Z,95717.00
2023-05-12T19:10:16.153Z,95722.00
2023-05-12T19:13:14.917Z,95719.00
2023-05-12T19:16:06.933Z,95728.00
2023-05-12T19:18:53.338Z,95732.00
2023-05-12T19:21:50.387Z,95731.00
2023-05-12T19:24:39.335Z,95732.00
2023-05-12T19:27:29.333Z,95725.00
2023-05-12T19:30:18.155Z,95731.00
2023-05-12T19:33:04.452Z,95740.00
2023-05-12T19:35:56.008Z,95739.00
2023-05-12T19:38:44.748Z,95743.00
2023-05-12T19:41:41.590Z,95732.00
2023-05-12T19:44:30.254Z,95735.00
2023-05-12T19:47:19.324Z,95737.00
2023-05-12T19:50:06.363Z,95737.00
2023-05-12T19:52:52.416Z,95742.00
2023-05-12T19:55:40.003Z,95736.00
2023-05-12T19:58:29.022Z,95743.00
2023-05-12T20:01:17.590Z,95745.00
2023-05-12T20:04:06.219Z,95752.00
2023-05-12T20:06:59.302Z,95749.00
2023-05-12T20:09:45.150Z,95747.00
2023-05-12T20:12:30.948Z,95742.00
2023-05-12T20:15:17.269Z,95750.00
2023-05-12T20:18:03.381Z,95747.00
2023-05-12T20:20:51.948Z,95753.00
2023-05-12T20:23:37.970Z,95747.00
2023-05-12T20:26:30.721Z,95759.00
2023-05-12T20:29:21.036Z,95753.00
2023-05-12T20:32:07.815Z,95754.00
2023-05-12T20:34:54.002Z,95746.00
2023-05-12T20:37:41.251Z,95758.00
2023-05-12T20:40:28.674Z,95760.00
2023-05-12T20:43:15.976Z,95753.00
2023-05-12T20:46:07.350Z,95757.00
2023-05-12T20:48:52.971Z,95769.00
2023-05-12T20:51:39.298Z,95763.00
2023-05-12T20:54:28.118Z,95761.00
2023-05-12T20:57:14.402Z,95760.00
2023-05-12T21:00:00.651Z,95766.00
2023-05-12T21:02:49.508Z,95765.00
2023-05-12T21:05:45.220Z,95763.00
2023-05-12T21:08:31.316Z,95763.00
2023-05-12T21:11:32.576Z,95776.00
2023-05-12T21:14:19.750Z,95768.00
2023-05-12T21:17:08.434Z,95769.00
2023-05-12T21:19:56.883Z,95768.00
2023-05-12T21:22:42.987Z,95775.00
2023-05-12T21:25:32.641Z,95770.00
2023-05-12T21:28:26.347Z,95768.00
2023-05-12T21:31:17.085Z,95775.00
2023-05-12T21:34:03.456Z,95778.00
2023-05-12T21:36:55.476Z,95770.00
2023-05-12T21:39:41.651Z,95775.00
2023-05-12T21:42:27.840Z,95773.00
2023-05-12T21:45:15.205Z,95777.00
2023-05-12T21:48:01.215Z,95769.00
2023-05-12T21:50:59.082Z,95773.00
2023-05-12T21:53:46.446Z,95769.00
2023-05-12T21:56:34.884Z,95778.00
2023-05-12T21:59:27.504Z,95769.00
2023-05-12T22:02:16.246Z,95762.00
2023-05-12T22:05:06.190Z,95765.00
2023-05-12T22:07:56.202Z,95772.00
2023-05-12T22:10:44.831Z,95762.00
2023-05-12T22:13:30.820Z,95766.00
2023-05-12T22:16:19.863Z,95776.00
2023-05-12T22:19:11.391Z,95769.00
2023-05-12T22:22:01.217Z,95774.00
2023-05-12T22:24:47.472Z,95767.00
2023-05-12T22:27:38.471Z,95766.00
2023-05-12T22:30:27.069Z,95773.00
2023-05-12T22:33:17.108Z,95771.00
2023-05-12T22:36:03.296Z,95764.00
2023-05-12T22:38:51.688Z,95768.00
2023-05-12T22:41:40.809Z,95763.00
2023-05-12T22:44:26.797Z,95772.00
2023-05-12T22:47:12.977Z,95769.00
2023-05-12T22:50:00.301Z,95754.00
2023-05-12T22:52:58.118Z,95758.00
2023-05-12T22:55:53.829Z,95760.00
2023-05-12T22:58:47.070Z,95765.00
2023-05-12T23:01:33.544Z,95764.00
2023-05-12T23:04:20.061Z,95760.00
2023-05-12T23:07:09.833Z,95757.00
2023-05-12T23:09:55.940Z,95755.00
2023-05-12T23:12:47.313Z,95754.00
2023-05-12T23:15:33.474Z,95755.00
2023-05-12T23:18:23.008Z,95758.00
2023-05-12T23:21:09.233Z,95745.00
2023-05-12T23:24:09.632Z,95762.00
2023-05-12T23:26:58.407Z,95756.00
2023-05-12T23:29:47.566Z,95751.00
2023-05-12T23:32:33.615Z,95749.00
2023-05-12T23:35:19.474Z,95749.00
2023-05-12T23:38:12.902Z,95745.00
2023-05-12T23:41:00.267Z,95755.00
2023-05-12T23:43:46.464Z,95752.00
2023-05-12T23:46:32.919Z,95743.00
2023-05-12T23:49:25.760Z,95748.00
2023-05-12T23:52:11.670Z,95744.00
2023-05-12T23:54:57.873Z,95743.00
2023-05-12T23:57:46.632Z,95745.00
